Home   Weather   USA   Milwaukee   Past weeks
Flag for USA

Past Weather in Milwaukee, Wisconsin, USA — March 2014

Currently: 50 °F. Overcast. (Weather station: Milwaukee / Timmerman, USA). See more current weather

March 2014 Weather in Milwaukee — Graph

°F

High & Low Weather Summary for March 2014

 TemperatureHumidityPressure
High59 °F (Mar 31, 12:45 pm)100% (Mar 12, 8:45 am)30.49 "Hg (Mar 12, 8:45 am)
Low-4 °F (Mar 3, 4:35 am)22% (Mar 23, 5:45 pm)29.39 "Hg (Mar 28, 12:55 am)
Average27 °F68%30.05 "Hg
* Reported Mar 1 12:15 am — Mar 31 11:55 pm, Milwaukee. Weather by CustomWeather, © 2021

Note: Actual official high and low records may vary slightly from our data, if they occured in-between our weather recording intervals... More about our weather records

Milwaukee Weather History for March 1, 2014

Scroll right to see more
 ConditionsComfort  
Time TempWeatherWind HumidityBarometerVisibility
12:15 am
Sat, Mar 1
21 °FLight snow. Mostly cloudy.No wind86%30.02 "Hg2 mi
12:35 am21 °FLight snow. Mostly cloudy.No wind86%30.03 "Hg2 mi
12:55 am21 °FLight snow. Mostly cloudy.3 mph86%30.03 "Hg2 mi
1:15 am21 °FLight snow. Mostly cloudy.6 mph86%30.03 "Hg3 mi
1:55 am21 °FLight snow. Mostly cloudy.5 mph86%30.03 "Hg2 mi
2:15 am21 °FLight snow. Mostly cloudy.6 mph86%30.03 "Hg5 mi
2:35 am21 °FLight snow. Overcast.6 mph80%30.03 "Hg5 mi
2:55 am19 °FLight snow. Overcast.10 mph86%30.04 "Hg5 mi
3:55 am19 °FMostly cloudy.13 mph68%30.07 "Hg10 mi
4:15 am18 °FOvercast.10 mph73%30.08 "Hg10 mi
4:35 am18 °FOvercast.9 mph73%30.08 "Hg10 mi
4:55 am18 °FMostly cloudy.8 mph73%30.09 "Hg10 mi
5:15 am18 °FMostly cloudy.13 mph73%30.11 "Hg10 mi
5:35 am16 °FLight snow. Mostly cloudy.12 mph79%30.12 "Hg10 mi
5:55 am16 °FMostly cloudy.14 mph73%30.13 "Hg10 mi
6:15 am14 °FMostly cloudy.17 mph73%30.14 "Hg10 mi
6:35 am14 °FMore clouds than sun.13 mph67%30.14 "Hg10 mi
6:45 am12 °FMore clouds than sun.16 mph67%30.14 "Hg10 mi
7:45 am12 °FMostly cloudy.12 mph62%30.19 "Hg10 mi
8:45 am12 °FOvercast.10 mph62%30.21 "Hg10 mi
9:45 am14 °FMore clouds than sun.12 mph57%30.23 "Hg10 mi
10:45 am14 °FOvercast.13 mph57%30.24 "Hg10 mi
11:45 am14 °FPartly sunny.12 mph52%30.26 "Hg10 mi
12:45 pm14 °FOvercast.12 mph57%30.24 "Hg10 mi
1:45 pm12 °FLight snow. Mostly cloudy.12 mph67%30.26 "Hg1 mi
2:45 pm10 °FLight snow. Overcast.12 mph72%30.28 "Hg1 mi
3:45 pm10 °FLight snow. Low clouds.10 mph79%30.29 "Hg1 mi
4:45 pm10 °FLight snow. Cloudy.14 mph72%30.30 "Hg1 mi
6:45 pm9 °FMostly cloudy.8 mph72%30.32 "Hg7 mi
7:45 pm9 °FLight snow. Low clouds.10 mph78%30.32 "Hg3 mi
8:15 pm9 °FMostly cloudy.12 mph72%30.33 "Hg10 mi
8:35 pm10 °FOvercast.7 mph67%30.34 "Hg10 mi
8:55 pm10 °FOvercast.9 mph67%30.34 "Hg10 mi
9:15 pm10 °FOvercast.10 mph61%30.33 "Hg10 mi
9:35 pm10 °FOvercast.12 mph67%30.36 "Hg10 mi
9:55 pm10 °FOvercast.8 mph67%30.35 "Hg10 mi
10:15 pm9 °FOvercast.12 mph66%30.33 "Hg10 mi
10:35 pm9 °FMostly cloudy.9 mph66%30.32 "Hg10 mi
10:55 pm9 °FLight snow. Overcast.10 mph72%30.33 "Hg5 mi
11:15 pm9 °FLight snow. Mostly cloudy.8 mph66%30.34 "Hg7 mi
11:35 pm9 °FOvercast.12 mph66%30.34 "Hg10 mi
11:55 pm9 °FOvercast.13 mph56%30.34 "Hg10 mi
Weather by CustomWeather, © 2021

See weather overview